createdAt,value
2023-04-16T00:01:40.998Z,6.44
2023-04-16T00:04:09.125Z,6.44
2023-04-16T00:06:37.137Z,6.45
2023-04-16T00:09:05.059Z,6.47
2023-04-16T00:11:32.964Z,6.50
2023-04-16T00:14:00.950Z,6.53
2023-04-16T00:16:29.119Z,6.56
2023-04-16T00:18:57.152Z,6.59
2023-04-16T00:21:26.529Z,6.61
2023-04-16T00:23:54.573Z,6.65
2023-04-16T00:26:22.512Z,6.71
2023-04-16T00:28:50.795Z,6.78
2023-04-16T00:31:18.799Z,6.80
2023-04-16T00:33:46.981Z,6.81
2023-04-16T00:36:14.874Z,6.81
2023-04-16T00:38:42.826Z,6.81
2023-04-16T00:41:10.766Z,6.87
2023-04-16T00:43:38.715Z,6.90
2023-04-16T00:46:07.288Z,6.92
2023-04-16T00:48:41.179Z,6.90
2023-04-16T00:51:09.976Z,6.89
2023-04-16T00:53:38.305Z,6.89
2023-04-16T00:56:07.526Z,6.87
2023-04-16T00:58:35.856Z,6.82
2023-04-16T01:01:04.050Z,6.78
2023-04-16T01:03:44.700Z,6.74
2023-04-16T01:06:13.293Z,6.72
2023-04-16T01:08:41.311Z,6.67
2023-04-16T01:11:11.361Z,6.63
2023-04-16T01:13:39.807Z,6.58
2023-04-16T01:16:09.750Z,6.54
2023-04-16T01:18:38.349Z,6.50
2023-04-16T01:21:06.927Z,6.46
2023-04-16T01:23:34.923Z,6.42
2023-04-16T01:26:03.733Z,6.39
2023-04-16T01:28:31.748Z,6.33
2023-04-16T01:30:59.774Z,6.28
2023-04-16T01:33:43.797Z,6.24
2023-04-16T01:36:12.818Z,6.19
2023-04-16T01:38:40.853Z,6.14
2023-04-16T01:41:08.840Z,6.09
2023-04-16T01:43:38.480Z,6.04
2023-04-16T01:46:29.460Z,5.99
2023-04-16T01:48:58.534Z,5.94
2023-04-16T01:51:27.491Z,5.89
2023-04-16T01:53:56.022Z,5.85
2023-04-16T01:56:24.117Z,5.82
2023-04-16T01:58:53.215Z,5.79
2023-04-16T02:01:21.253Z,5.73
2023-04-16T02:03:49.922Z,5.69
2023-04-16T02:06:18.008Z,5.66
2023-04-16T02:08:48.042Z,5.63
2023-04-16T02:11:16.093Z,5.60
2023-04-16T02:13:44.550Z,5.55
2023-04-16T02:16:12.898Z,5.52
2023-04-16T02:18:56.300Z,5.52
2023-04-16T02:21:24.633Z,5.52
2023-04-16T02:23:52.600Z,5.51
2023-04-16T02:26:24.836Z,5.49
2023-04-16T02:28:52.754Z,5.49
2023-04-16T02:31:23.555Z,5.49
2023-04-16T02:33:52.079Z,5.50
2023-04-16T02:36:20.359Z,5.53
2023-04-16T02:38:48.589Z,5.57
2023-04-16T02:41:16.495Z,5.59
2023-04-16T02:43:44.432Z,5.61
2023-04-16T02:46:12.450Z,5.63
2023-04-16T02:48:40.640Z,5.64
2023-04-16T02:51:08.612Z,5.66
2023-04-16T02:53:36.806Z,5.64
2023-04-16T02:56:04.996Z,5.63
2023-04-16T02:58:32.935Z,5.63
2023-04-16T03:01:00.975Z,5.59
2023-04-16T03:03:29.050Z,5.59
2023-04-16T03:05:57.046Z,5.65
2023-04-16T03:08:25.191Z,5.70
2023-04-16T03:10:53.102Z,5.72
2023-04-16T03:13:21.096Z,5.74
2023-04-16T03:15:50.074Z,5.75
2023-04-16T03:18:18.201Z,5.73
2023-04-16T03:20:46.197Z,5.70
2023-04-16T03:23:14.210Z,5.65
2023-04-16T03:25:43.675Z,5.59
2023-04-16T03:28:11.606Z,5.52
2023-04-16T03:30:39.669Z,5.46
2023-04-16T03:33:07.798Z,5.40
2023-04-16T03:35:35.853Z,5.33
2023-04-16T03:38:03.816Z,5.27
2023-04-16T03:40:31.975Z,5.21
2023-04-16T03:43:00.570Z,5.15
2023-04-16T03:45:28.631Z,5.11
2023-04-16T03:47:56.661Z,5.04
2023-04-16T03:50:26.307Z,4.98
2023-04-16T03:52:54.356Z,4.92
2023-04-16T03:55:22.385Z,4.87
2023-04-16T03:57:50.275Z,4.82
2023-04-16T04:00:18.409Z,4.78
2023-04-16T04:03:01.083Z,4.74
2023-04-16T04:05:29.275Z,4.70
2023-04-16T04:07:57.264Z,4.67
2023-04-16T04:10:25.529Z,4.64
2023-04-16T04:12:54.504Z,4.60
2023-04-16T04:15:22.414Z,4.58
2023-04-16T04:17:50.393Z,4.56
2023-04-16T04:20:18.464Z,4.54
2023-04-16T04:22:47.424Z,4.53
2023-04-16T04:25:16.712Z,4.53
2023-04-16T04:27:44.624Z,4.54
2023-04-16T04:30:12.579Z,4.55
2023-04-16T04:32:40.986Z,4.56
2023-04-16T04:35:09.967Z,4.57
2023-04-16T04:37:37.904Z,4.60
2023-04-16T04:40:13.110Z,4.65
2023-04-16T04:42:41.063Z,4.72
2023-04-16T04:45:10.132Z,4.81
2023-04-16T04:47:38.132Z,4.93
2023-04-16T04:50:06.769Z,5.05
2023-04-16T04:52:35.003Z,5.18
2023-04-16T04:55:03.787Z,5.30
2023-04-16T04:57:31.832Z,5.41
2023-04-16T04:59:59.854Z,5.54
2023-04-16T05:02:28.799Z,5.68
2023-04-16T05:04:56.862Z,5.83
2023-04-16T05:07:25.150Z,5.93
2023-04-16T05:09:53.568Z,6.03
2023-04-16T05:12:21.502Z,6.13
2023-04-16T05:14:49.604Z,6.19
2023-04-16T05:17:17.625Z,6.24
2023-04-16T05:19:45.596Z,6.26
2023-04-16T05:22:13.459Z,6.28
2023-04-16T05:24:41.529Z,6.29
2023-04-16T05:27:09.717Z,6.32
2023-04-16T05:29:37.725Z,6.38
2023-04-16T05:32:05.824Z,6.49
2023-04-16T05:34:33.776Z,6.60
2023-04-16T05:37:01.796Z,6.71
2023-04-16T05:39:29.793Z,6.82
2023-04-16T05:41:57.770Z,6.96
2023-04-16T05:44:25.957Z,7.14
2023-04-16T05:46:54.180Z,7.30
2023-04-16T05:49:22.285Z,7.44
2023-04-16T05:51:51.080Z,7.57
2023-04-16T05:54:19.218Z,7.67
2023-04-16T05:56:47.114Z,7.79
2023-04-16T05:59:15.006Z,7.90
2023-04-16T06:01:42.980Z,7.99
2023-04-16T06:04:11.143Z,8.07
2023-04-16T06:06:40.297Z,8.13
2023-04-16T06:09:08.443Z,8.19
2023-04-16T06:11:36.673Z,8.22
2023-04-16T06:14:04.586Z,8.24
2023-04-16T06:16:32.592Z,8.25
2023-04-16T06:19:00.861Z,8.27
2023-04-16T06:21:29.215Z,8.29
2023-04-16T06:23:57.366Z,8.32
2023-04-16T06:26:25.887Z,8.35
2023-04-16T06:28:53.835Z,8.37
2023-04-16T06:31:21.962Z,8.42
2023-04-16T06:33:49.900Z,8.51
2023-04-16T06:36:18.151Z,8.58
2023-04-16T06:38:46.583Z,8.68
2023-04-16T06:41:14.919Z,8.78
2023-04-16T06:43:42.911Z,8.86
2023-04-16T06:46:11.315Z,8.95
2023-04-16T06:48:39.238Z,9.00
2023-04-16T06:51:07.352Z,9.07
2023-04-16T06:53:37.591Z,9.17
2023-04-16T06:56:06.187Z,9.28
2023-04-16T06:58:34.254Z,9.44
2023-04-16T07:01:02.863Z,9.60
2023-04-16T07:03:31.369Z,9.74
2023-04-16T07:05:59.576Z,9.84
2023-04-16T07:08:27.471Z,9.92
2023-04-16T07:10:55.421Z,10.00
2023-04-16T07:13:23.395Z,10.11
2023-04-16T07:15:51.474Z,10.23
2023-04-16T07:18:20.789Z,10.32
2023-04-16T07:20:48.888Z,10.43
2023-04-16T07:23:16.891Z,10.54
2023-04-16T07:25:44.760Z,10.63
2023-04-16T07:28:13.021Z,10.70
2023-04-16T07:30:40.992Z,10.74
2023-04-16T07:33:09.351Z,10.82
2023-04-16T07:35:37.656Z,10.92
2023-04-16T07:38:05.980Z,11.02
2023-04-16T07:40:33.974Z,11.11
2023-04-16T07:43:01.991Z,11.20
2023-04-16T07:45:29.944Z,11.29
2023-04-16T07:47:58.014Z,11.35
2023-04-16T07:50:26.196Z,11.41
2023-04-16T07:52:54.180Z,11.50
2023-04-16T07:55:22.166Z,11.60
2023-04-16T07:57:50.473Z,11.68
2023-04-16T08:00:18.420Z,11.75
2023-04-16T08:02:46.773Z,11.89
2023-04-16T08:05:14.896Z,12.02
2023-04-16T08:07:42.828Z,12.11
2023-04-16T08:10:11.177Z,12.21
2023-04-16T08:12:39.269Z,12.33
2023-04-16T08:15:08.072Z,12.40
2023-04-16T08:17:37.804Z,12.46
2023-04-16T08:20:06.962Z,12.57
2023-04-16T08:22:35.023Z,12.71
2023-04-16T08:25:04.434Z,12.81
2023-04-16T08:27:32.371Z,12.88
2023-04-16T08:30:00.411Z,12.93
2023-04-16T08:32:28.539Z,12.96
2023-04-16T08:34:57.289Z,13.04
2023-04-16T08:37:26.303Z,13.16
2023-04-16T08:39:54.186Z,13.26
2023-04-16T08:42:33.487Z,13.37
2023-04-16T08:45:13.638Z,13.51
2023-04-16T08:47:45.541Z,13.65
2023-04-16T08:50:18.446Z,13.79
2023-04-16T08:52:54.793Z,13.89
2023-04-16T08:55:26.705Z,13.93
2023-04-16T08:57:58.698Z,13.98
2023-04-16T09:00:26.988Z,14.04
2023-04-16T09:02:55.046Z,14.07
2023-04-16T09:05:25.801Z,14.06
2023-04-16T09:07:56.723Z,14.11
2023-04-16T09:10:27.366Z,14.12
2023-04-16T09:12:58.244Z,14.13
2023-04-16T09:15:26.562Z,14.25
2023-04-16T09:17:54.642Z,14.38
2023-04-16T09:20:22.865Z,14.50
2023-04-16T09:22:51.846Z,14.60
2023-04-16T09:25:22.153Z,14.68
2023-04-16T09:27:51.024Z,14.72
2023-04-16T09:30:21.965Z,14.85
2023-04-16T09:32:51.692Z,14.95
2023-04-16T09:35:20.804Z,15.07
2023-04-16T09:37:58.309Z,15.20
2023-04-16T09:40:30.521Z,15.32
2023-04-16T09:43:00.630Z,15.38
2023-04-16T09:45:32.076Z,15.43
2023-04-16T09:48:05.095Z,15.51
2023-04-16T09:50:33.148Z,15.62
2023-04-16T09:53:03.703Z,15.62
2023-04-16T09:55:32.828Z,15.68
2023-04-16T09:58:01.804Z,15.77
2023-04-16T10:00:31.663Z,15.84
2023-04-16T10:03:07.372Z,15.92
2023-04-16T10:05:35.722Z,15.98
2023-04-16T10:08:11.218Z,16.06
2023-04-16T10:10:40.089Z,16.12
2023-04-16T10:13:08.696Z,16.18
2023-04-16T10:15:36.989Z,16.28
2023-04-16T10:18:06.398Z,16.30
2023-04-16T10:20:35.325Z,16.32
2023-04-16T10:23:03.473Z,16.30
2023-04-16T10:25:32.657Z,16.34
2023-04-16T10:28:00.777Z,16.38
2023-04-16T10:30:29.223Z,16.46
2023-04-16T10:33:00.264Z,16.54
2023-04-16T10:35:28.670Z,16.47
2023-04-16T10:37:57.966Z,16.44
2023-04-16T10:40:27.426Z,16.51
2023-04-16T10:43:00.689Z,16.70
2023-04-16T10:45:33.059Z,16.84
2023-04-16T10:48:06.371Z,16.89
2023-04-16T10:50:36.491Z,17.13
2023-04-16T10:53:22.856Z,17.34
2023-04-16T10:56:03.238Z,17.56
2023-04-16T10:58:32.727Z,17.92
2023-04-16T11:01:01.957Z,18.11
2023-04-16T11:03:33.008Z,18.11
2023-04-16T11:06:23.898Z,18.15
2023-04-16T11:08:54.911Z,18.12
2023-04-16T11:11:23.711Z,18.11
2023-04-16T11:13:56.464Z,18.12
2023-04-16T11:16:26.028Z,18.07
2023-04-16T11:18:56.714Z,18.13
2023-04-16T11:21:25.407Z,18.25
2023-04-16T11:23:53.867Z,18.31
2023-04-16T11:26:29.261Z,18.35
2023-04-16T11:28:57.398Z,18.36
2023-04-16T11:31:27.389Z,18.28
2023-04-16T11:33:56.960Z,18.19
2023-04-16T11:36:27.470Z,18.09
2023-04-16T11:39:02.316Z,17.97
2023-04-16T11:41:30.391Z,17.76
2023-04-16T11:43:58.293Z,17.72
2023-04-16T11:46:39.450Z,17.84
2023-04-16T11:49:07.833Z,17.95
2023-04-16T11:51:43.987Z,18.05
2023-04-16T11:54:22.228Z,18.04
2023-04-16T11:56:51.746Z,17.99
2023-04-16T11:59:23.213Z,18.01
2023-04-16T12:01:53.290Z,18.01
2023-04-16T12:04:26.867Z,18.05
2023-04-16T12:07:14.657Z,18.11
2023-04-16T12:09:43.925Z,18.14
2023-04-16T12:12:30.822Z,18.18
2023-04-16T12:15:03.308Z,18.30
2023-04-16T12:17:35.957Z,18.50
2023-04-16T12:20:12.595Z,18.69
2023-04-16T12:22:44.638Z,18.82
2023-04-16T12:25:15.547Z,18.85
2023-04-16T12:27:55.738Z,18.81
2023-04-16T12:30:26.380Z,18.80
2023-04-16T12:33:15.457Z,18.73
2023-04-16T12:35:44.110Z,18.69
2023-04-16T12:38:12.587Z,18.66
2023-04-16T12:40:41.334Z,18.70
2023-04-16T12:43:11.930Z,18.75
2023-04-16T12:45:40.735Z,18.78
2023-04-16T12:48:08.810Z,18.64
2023-04-16T12:50:36.896Z,18.50
2023-04-16T12:53:04.925Z,18.51
2023-04-16T12:55:32.860Z,18.59
2023-04-16T12:58:01.068Z,18.65
2023-04-16T13:00:29.145Z,18.66
2023-04-16T13:02:57.286Z,18.68
2023-04-16T13:05:25.886Z,18.70
2023-04-16T13:07:54.205Z,18.69
2023-04-16T13:10:23.616Z,18.71
2023-04-16T13:12:51.605Z,18.71
2023-04-16T13:15:19.696Z,18.71
2023-04-16T13:17:47.690Z,18.71
2023-04-16T13:20:15.755Z,18.66
2023-04-16T13:22:43.757Z,18.61
2023-04-16T13:25:11.769Z,18.58
2023-04-16T13:27:39.664Z,18.50
2023-04-16T13:30:07.985Z,18.38
2023-04-16T13:32:36.023Z,18.22
2023-04-16T13:35:04.690Z,18.08
2023-04-16T13:37:32.755Z,17.94
2023-04-16T13:40:00.756Z,17.69
2023-04-16T13:42:28.872Z,17.38
2023-04-16T13:44:58.288Z,17.04
2023-04-16T13:47:26.315Z,16.71
2023-04-16T13:49:54.338Z,16.34
2023-04-16T13:52:22.302Z,16.01
2023-04-16T13:54:50.254Z,15.68
2023-04-16T13:57:21.120Z,15.34
2023-04-16T13:59:49.574Z,15.04
2023-04-16T14:02:17.683Z,14.79
2023-04-16T14:04:46.312Z,14.59
2023-04-16T14:07:14.696Z,14.43
2023-04-16T14:09:42.649Z,14.34
2023-04-16T14:12:10.612Z,14.22
2023-04-16T14:14:38.670Z,14.15
2023-04-16T14:17:07.593Z,14.11
2023-04-16T14:19:35.633Z,14.07
2023-04-16T14:22:03.615Z,14.05
2023-04-16T14:24:31.550Z,14.00
2023-04-16T14:26:59.589Z,13.96
2023-04-16T14:29:27.610Z,13.96
2023-04-16T14:31:55.588Z,13.96
2023-04-16T14:34:23.673Z,13.96
2023-04-16T14:36:52.101Z,13.95
2023-04-16T14:39:20.150Z,13.97
2023-04-16T14:41:48.148Z,14.00
2023-04-16T14:44:16.065Z,14.03
2023-04-16T14:46:44.712Z,14.06
2023-04-16T14:49:14.559Z,14.09
2023-04-16T14:51:45.251Z,14.12
2023-04-16T14:54:13.159Z,14.15
2023-04-16T14:56:41.694Z,14.18
2023-04-16T14:59:09.787Z,14.21
2023-04-16T15:01:41.823Z,14.26
2023-04-16T15:04:10.278Z,14.33
2023-04-16T15:06:38.526Z,14.39
2023-04-16T15:09:07.555Z,14.44
2023-04-16T15:11:35.644Z,14.49
2023-04-16T15:14:03.645Z,14.58
2023-04-16T15:16:31.713Z,14.66
2023-04-16T15:18:59.796Z,14.71
2023-04-16T15:21:28.153Z,14.74
2023-04-16T15:23:56.202Z,14.80
2023-04-16T15:26:24.210Z,14.87
2023-04-16T15:28:52.225Z,14.92
2023-04-16T15:31:21.122Z,14.95
2023-04-16T15:33:49.552Z,14.96
2023-04-16T15:36:17.481Z,14.94
2023-04-16T15:38:45.550Z,14.88
2023-04-16T15:41:13.914Z,14.82
2023-04-16T15:43:41.963Z,14.67
2023-04-16T15:46:10.646Z,14.39
2023-04-16T15:48:38.635Z,14.14
2023-04-16T15:51:06.638Z,13.96
2023-04-16T15:53:34.863Z,13.78
2023-04-16T15:56:02.793Z,13.58
2023-04-16T15:58:30.842Z,13.48
2023-04-16T16:00:58.874Z,13.42
2023-04-16T16:03:27.576Z,13.37
2023-04-16T16:05:58.201Z,13.35
2023-04-16T16:08:27.457Z,13.32
2023-04-16T16:10:55.409Z,13.29
2023-04-16T16:13:23.454Z,13.25
2023-04-16T16:15:51.969Z,13.24
2023-04-16T16:18:22.139Z,13.20
2023-04-16T16:20:51.948Z,13.16
2023-04-16T16:23:19.835Z,13.15
2023-04-16T16:25:47.780Z,13.07
2023-04-16T16:28:15.791Z,13.00
2023-04-16T16:30:44.879Z,12.97
2023-04-16T16:33:14.172Z,12.95
2023-04-16T16:35:42.775Z,12.95
2023-04-16T16:38:10.755Z,12.97
2023-04-16T16:40:39.764Z,12.97
2023-04-16T16:43:08.037Z,12.98
2023-04-16T16:45:36.298Z,13.00
2023-04-16T16:48:04.693Z,13.03
2023-04-16T16:50:33.338Z,13.06
2023-04-16T16:53:01.325Z,13.06
2023-04-16T16:55:29.177Z,13.03
2023-04-16T16:57:57.226Z,13.05
2023-04-16T17:00:25.569Z,13.08
2023-04-16T17:02:53.707Z,13.12
2023-04-16T17:05:21.960Z,13.16
2023-04-16T17:07:49.972Z,13.19
2023-04-16T17:10:21.126Z,13.14
2023-04-16T17:12:51.181Z,13.14
2023-04-16T17:15:21.653Z,13.11
2023-04-16T17:17:50.219Z,13.02
2023-04-16T17:20:18.449Z,12.97
2023-04-16T17:22:46.333Z,12.98
2023-04-16T17:25:14.706Z,12.93
2023-04-16T17:27:42.646Z,12.88
2023-04-16T17:30:10.928Z,12.86
2023-04-16T17:32:38.974Z,12.81
2023-04-16T17:35:08.935Z,12.76
2023-04-16T17:37:36.824Z,12.74
2023-04-16T17:40:07.536Z,12.72
2023-04-16T17:42:36.309Z,12.72
2023-04-16T17:45:07.204Z,12.72
2023-04-16T17:47:36.540Z,12.72
2023-04-16T17:50:05.085Z,12.71
2023-04-16T17:52:33.215Z,12.69
2023-04-16T17:55:01.767Z,12.67
2023-04-16T17:57:31.067Z,12.66
2023-04-16T17:59:59.037Z,12.64
2023-04-16T18:02:27.147Z,12.62
2023-04-16T18:04:55.628Z,12.59
2023-04-16T18:07:23.831Z,12.56
2023-04-16T18:09:54.070Z,12.54
2023-04-16T18:12:22.126Z,12.51
2023-04-16T18:14:50.022Z,12.49
2023-04-16T18:17:18.053Z,12.47
2023-04-16T18:19:46.029Z,12.45
2023-04-16T18:22:14.063Z,12.42
2023-04-16T18:24:42.207Z,12.39
2023-04-16T18:27:10.124Z,12.36
2023-04-16T18:29:39.877Z,12.34
2023-04-16T18:32:11.671Z,12.31
2023-04-16T18:34:40.270Z,12.29
2023-04-16T18:37:08.546Z,12.27
2023-04-16T18:39:37.273Z,12.24
2023-04-16T18:42:05.329Z,12.22
2023-04-16T18:44:34.295Z,12.21
2023-04-16T18:47:02.361Z,12.18
2023-04-16T18:49:30.485Z,12.15
2023-04-16T18:51:58.498Z,12.10
2023-04-16T18:54:28.201Z,12.09
2023-04-16T18:56:57.763Z,12.05
2023-04-16T18:59:27.236Z,12.02
2023-04-16T19:01:55.428Z,12.01
2023-04-16T19:04:23.639Z,11.99
2023-04-16T19:06:51.670Z,11.96
2023-04-16T19:09:20.166Z,11.94
2023-04-16T19:11:50.714Z,11.94
2023-04-16T19:14:20.106Z,11.94
2023-04-16T19:16:48.065Z,11.92
2023-04-16T19:19:17.568Z,11.90
2023-04-16T19:21:45.453Z,11.90
2023-04-16T19:24:13.553Z,11.88
2023-04-16T19:26:41.670Z,11.86
2023-04-16T19:29:09.705Z,11.86
2023-04-16T19:31:37.850Z,11.85
2023-04-16T19:34:05.815Z,11.83
2023-04-16T19:36:33.957Z,11.78
2023-04-16T19:39:01.959Z,11.75
2023-04-16T19:41:29.883Z,11.71
2023-04-16T19:43:57.798Z,11.69
2023-04-16T19:46:25.967Z,11.68
2023-04-16T19:48:53.989Z,11.65
2023-04-16T19:51:21.969Z,11.62
2023-04-16T19:53:49.951Z,11.60
2023-04-16T19:56:17.993Z,11.55
2023-04-16T19:58:46.131Z,11.52
2023-04-16T20:01:14.294Z,11.47
2023-04-16T20:03:42.382Z,11.42
2023-04-16T20:06:10.548Z,11.36
2023-04-16T20:08:38.612Z,11.28
2023-04-16T20:11:08.662Z,11.20
2023-04-16T20:13:37.726Z,11.14
2023-04-16T20:16:05.903Z,11.06
2023-04-16T20:18:41.468Z,10.99
2023-04-16T20:21:10.105Z,10.90
2023-04-16T20:23:38.015Z,10.84
2023-04-16T20:26:06.254Z,10.78
2023-04-16T20:28:34.135Z,10.71
2023-04-16T20:31:02.128Z,10.66
2023-04-16T20:33:30.055Z,10.62
2023-04-16T20:35:58.010Z,10.58
2023-04-16T20:38:26.047Z,10.53
2023-04-16T20:41:12.508Z,10.49
2023-04-16T20:43:42.028Z,10.43
2023-04-16T20:46:11.896Z,10.39
2023-04-16T20:48:40.051Z,10.36
2023-04-16T20:51:09.733Z,10.34
2023-04-16T20:53:38.385Z,10.33
2023-04-16T20:56:08.384Z,10.32
2023-04-16T20:58:36.314Z,10.31
2023-04-16T21:01:06.032Z,10.32
2023-04-16T21:03:34.117Z,10.34
2023-04-16T21:06:02.300Z,10.34
2023-04-16T21:08:30.430Z,10.36
2023-04-16T21:10:58.381Z,10.37
2023-04-16T21:13:26.523Z,10.38
2023-04-16T21:15:54.509Z,10.40
2023-04-16T21:18:22.467Z,10.42
2023-04-16T21:20:50.454Z,10.42
2023-04-16T21:23:18.432Z,10.42
2023-04-16T21:25:46.418Z,10.43
2023-04-16T21:28:14.272Z,10.43
2023-04-16T21:30:42.859Z,10.43
2023-04-16T21:33:12.957Z,10.46
2023-04-16T21:35:40.922Z,10.44
2023-04-16T21:38:08.913Z,10.39
2023-04-16T21:40:36.826Z,10.35
2023-04-16T21:43:04.706Z,10.33
2023-04-16T21:45:32.731Z,10.33
2023-04-16T21:48:00.914Z,10.35
2023-04-16T21:50:29.104Z,10.37
2023-04-16T21:52:57.230Z,10.40
2023-04-16T21:55:25.779Z,10.46
2023-04-16T21:57:53.626Z,10.51
2023-04-16T22:00:21.672Z,10.55
2023-04-16T22:02:49.772Z,10.57
2023-04-16T22:05:18.001Z,10.55
2023-04-16T22:07:46.012Z,10.53
2023-04-16T22:10:15.164Z,10.54
2023-04-16T22:12:47.336Z,10.54
2023-04-16T22:15:15.572Z,10.53
2023-04-16T22:17:43.991Z,10.48
2023-04-16T22:20:13.422Z,10.45
2023-04-16T22:22:42.372Z,10.43
2023-04-16T22:25:11.541Z,10.42
2023-04-16T22:27:39.761Z,10.41
2023-04-16T22:30:08.466Z,10.41
2023-04-16T22:32:36.706Z,10.38
2023-04-16T22:35:05.233Z,10.34
2023-04-16T22:37:33.612Z,10.29
2023-04-16T22:40:01.579Z,10.24
2023-04-16T22:42:29.579Z,10.21
2023-04-16T22:44:57.580Z,10.16
2023-04-16T22:47:25.594Z,10.11
2023-04-16T22:49:53.960Z,10.07
2023-04-16T22:52:21.936Z,10.05
2023-04-16T22:54:49.956Z,10.03
2023-04-16T22:57:21.210Z,10.02
2023-04-16T22:59:49.197Z,10.01
2023-04-16T23:02:17.582Z,9.99
2023-04-16T23:04:46.509Z,9.98
2023-04-16T23:07:15.157Z,9.98
2023-04-16T23:09:43.098Z,9.99
2023-04-16T23:12:11.089Z,9.99
2023-04-16T23:14:39.082Z,10.01
2023-04-16T23:17:07.115Z,10.01
2023-04-16T23:19:35.013Z,10.01
2023-04-16T23:22:03.455Z,10.03
2023-04-16T23:24:31.405Z,10.08
2023-04-16T23:26:59.390Z,10.11
2023-04-16T23:29:27.347Z,10.13
2023-04-16T23:31:55.253Z,10.15
2023-04-16T23:34:23.165Z,10.19
2023-04-16T23:36:51.557Z,10.23
2023-04-16T23:39:19.547Z,10.22
2023-04-16T23:41:47.499Z,10.19
2023-04-16T23:44:16.509Z,10.19
2023-04-16T23:46:44.504Z,10.20
2023-04-16T23:49:12.764Z,10.20
2023-04-16T23:51:41.352Z,10.20
2023-04-16T23:54:09.337Z,10.23
2023-04-16T23:56:37.373Z,10.24
2023-04-16T23:59:05.694Z,10.23
